Time;durP1;ratioP1;P1;durP2;ratioP2;P2;SDS_P1;SDS_P2;PMS_P1;PMS_P2;Temp;Humidity;BMP_temperature;BMP_pressure;BME280_temperature;BME280_humidity;BME280_pressure;Samples;Min_cycle;Max_cycle;Signal;HPM_P1;HPM_P2
2021/07/28 00:00:07;;;;;;;7.68;5.35;;;17.60;99.90;;;;;;5047950;28;20037;-68
2021/07/28 00:02:33;;;;;;;9.13;5.95;;;17.60;99.90;;;;;;5012516;28;20021;-68
2021/07/28 00:05:03;;;;;;;7.38;5.93;;;17.60;99.90;;;;;;5047124;28;20034;-68
2021/07/28 00:07:31;;;;;;;9.52;5.88;;;17.60;99.90;;;;;;5046529;28;20040;-68
2021/07/28 00:09:59;;;;;;;8.20;6.18;;;17.60;99.90;;;;;;5047670;28;20059;-68
2021/07/28 00:12:29;;;;;;;9.18;6.22;;;17.60;99.90;;;;;;5047631;28;20551;-68
2021/07/28 00:14:57;;;;;;;7.93;5.75;;;17.50;99.90;;;;;;5048565;28;20039;-68
2021/07/28 00:17:26;;;;;;;7.75;5.90;;;17.50;99.90;;;;;;5034116;28;20071;-68
2021/07/28 00:19:57;;;;;;;9.25;5.88;;;17.60;99.90;;;;;;5047831;28;20024;-67
2021/07/28 00:25:12;;;;;;;7.25;5.60;;;17.50;99.90;;;;;;5046591;28;20071;-68
2021/07/28 00:27:40;;;;;;;8.40;6.13;;;17.50;99.90;;;;;;5047619;28;20039;-68
2021/07/28 00:30:09;;;;;;;11.32;5.82;;;17.50;99.90;;;;;;5047931;28;20419;-68
2021/07/28 00:32:35;;;;;;;8.38;6.13;;;17.40;99.90;;;;;;5048086;28;20024;-68
2021/07/28 00:35:03;;;;;;;10.68;7.13;;;17.30;99.90;;;;;;5047713;28;20032;-67
2021/07/28 00:37:30;;;;;;;8.60;7.20;;;17.20;99.90;;;;;;5028974;28;20107;-68
2021/07/28 00:39:56;;;;;;;9.25;6.90;;;17.10;99.90;;;;;;5029535;28;20029;-67
2021/07/28 00:42:22;;;;;;;10.07;7.68;;;17.20;99.90;;;;;;5047227;28;20059;-67
2021/07/28 00:44:50;;;;;;;10.95;7.13;;;17.10;99.90;;;;;;5047588;28;20562;-67
2021/07/28 00:47:15;;;;;;;10.25;7.65;;;17.10;99.90;;;;;;5061409;28;20033;-68
2021/07/28 00:49:41;;;;;;;12.35;6.93;;;17.10;99.90;;;;;;5012031;28;20707;-67
2021/07/28 00:52:07;;;;;;;11.35;6.72;;;17.00;99.90;;;;;;5029192;28;20118;-68
2021/07/28 00:54:33;;;;;;;10.90;7.20;;;17.00;99.90;;;;;;5047353;28;20510;-67
2021/07/28 00:57:03;;;;;;;11.95;8.00;;;17.00;99.90;;;;;;5029982;28;20040;-67
2021/07/28 00:59:31;;;;;;;10.85;7.10;;;17.00;99.90;;;;;;5044859;28;20045;-67
2021/07/28 01:01:57;;;;;;;11.90;6.88;;;16.90;99.90;;;;;;5062015;28;20028;-68
2021/07/28 01:04:27;;;;;;;11.18;8.25;;;16.80;99.90;;;;;;5030008;28;20039;-67
2021/07/28 01:06:56;;;;;;;13.93;8.20;;;16.80;99.90;;;;;;5046213;28;20036;-68
2021/07/28 01:09:23;;;;;;;11.15;8.02;;;16.80;99.90;;;;;;5062668;28;20115;-68
2021/07/28 01:11:49;;;;;;;10.63;7.65;;;16.70;99.90;;;;;;5046137;28;20108;-67
2021/07/28 01:14:17;;;;;;;12.80;7.70;;;16.70;99.90;;;;;;5029048;28;20029;-67
2021/07/28 01:16:43;;;;;;;10.90;8.40;;;16.70;99.90;;;;;;5047329;28;20049;-68
2021/07/28 01:19:18;;;;;;;13.50;9.65;;;16.60;99.90;;;;;;5012345;28;20090;-68
2021/07/28 01:21:52;;;;;;;11.40;7.30;;;16.70;99.90;;;;;;5045647;28;20021;-68
2021/07/28 01:24:20;;;;;;;12.57;9.20;;;16.80;99.90;;;;;;5046680;28;20025;-67
2021/07/28 01:26:45;;;;;;;18.73;8.55;;;16.70;99.90;;;;;;5062078;28;20175;-67
2021/07/28 01:29:13;;;;;;;16.00;8.85;;;16.70;99.90;;;;;;5061896;28;20454;-68
2021/07/28 01:31:43;;;;;;;16.15;8.77;;;16.70;99.90;;;;;;5044360;28;20028;-68
2021/07/28 01:34:12;;;;;;;12.27;7.40;;;16.70;99.90;;;;;;5046108;28;20896;-68
2021/07/28 01:36:40;;;;;;;13.93;7.18;;;16.70;99.90;;;;;;5061858;28;20044;-68
2021/07/28 01:39:08;;;;;;;12.27;8.70;;;16.70;99.90;;;;;;5062406;28;20936;-67
2021/07/28 01:41:34;;;;;;;13.75;9.38;;;16.70;99.90;;;;;;5028196;28;20059;-67
2021/07/28 01:44:02;;;;;;;11.55;8.30;;;16.60;99.90;;;;;;5029081;28;20073;-67
2021/07/28 01:46:30;;;;;;;11.77;7.88;;;16.60;99.90;;;;;;5045582;28;20063;-67
2021/07/28 01:48:55;;;;;;;11.60;7.90;;;16.60;99.90;;;;;;5046573;28;20025;-67
2021/07/28 01:51:21;;;;;;;14.48;8.70;;;16.60;99.90;;;;;;5046182;28;20036;-68
2021/07/28 01:53:46;;;;;;;13.48;9.30;;;16.60;99.90;;;;;;5045650;28;20029;-68
2021/07/28 01:56:13;;;;;;;15.48;8.88;;;16.60;99.90;;;;;;5062154;28;20424;-68
2021/07/28 01:58:42;;;;;;;13.93;9.20;;;16.50;99.90;;;;;;5029589;28;20586;-68
2021/07/28 02:01:07;;;;;;;12.13;8.00;;;16.50;99.90;;;;;;5047044;28;20039;-67
2021/07/28 02:03:33;;;;;;;11.93;8.40;;;16.40;99.90;;;;;;5046576;28;20477;-68
2021/07/28 02:06:00;;;;;;;12.55;9.32;;;16.40;99.90;;;;;;5046750;28;20185;-68
2021/07/28 02:08:28;;;;;;;14.13;9.57;;;16.50;99.90;;;;;;5063100;28;20714;-67
2021/07/28 02:10:55;;;;;;;13.65;9.52;;;16.40;99.90;;;;;;5045273;28;20029;-67
2021/07/28 02:13:23;;;;;;;15.73;8.38;;;16.40;99.90;;;;;;5047232;28;20104;-68
2021/07/28 02:15:50;;;;;;;13.52;9.32;;;16.40;99.90;;;;;;5028888;28;20040;-68
2021/07/28 02:18:17;;;;;;;12.30;8.82;;;16.40;99.90;;;;;;5046120;28;20029;-67
2021/07/28 02:20:43;;;;;;;12.63;8.27;;;16.30;99.90;;;;;;5047354;28;20029;-67
2021/07/28 02:23:11;;;;;;;14.32;9.32;;;16.30;99.90;;;;;;5047619;28;20029;-67
2021/07/28 02:25:36;;;;;;;16.15;10.82;;;16.30;99.90;;;;;;5032469;28;21816;-67
2021/07/28 02:28:02;;;;;;;13.82;8.77;;;16.30;99.90;;;;;;5049623;28;20032;-68
2021/07/28 02:30:30;;;;;;;11.93;9.32;;;16.30;99.90;;;;;;5031373;28;20041;-68
2021/07/28 02:32:56;;;;;;;15.60;9.45;;;16.20;99.90;;;;;;5047091;28;20120;-67
2021/07/28 02:35:21;;;;;;;15.70;11.15;;;16.20;99.90;;;;;;5030949;28;20043;-68
2021/07/28 02:37:49;;;;;;;14.70;10.23;;;16.20;99.90;;;;;;5064484;28;20047;-68
2021/07/28 02:40:17;;;;;;;12.85;9.88;;;16.20;99.90;;;;;;5049079;28;20036;-68
2021/07/28 02:42:44;;;;;;;13.40;9.65;;;16.20;99.90;;;;;;5064176;28;20035;-67
2021/07/28 02:45:10;;;;;;;14.30;10.15;;;16.20;99.90;;;;;;5065315;28;20028;-68
2021/07/28 02:47:40;;;;;;;14.82;9.95;;;16.20;99.90;;;;;;5047550;28;20048;-67
2021/07/28 02:50:06;;;;;;;14.45;10.02;;;16.20;99.90;;;;;;5049098;28;20037;-68
2021/07/28 02:52:34;;;;;;;18.85;11.05;;;16.20;99.90;;;;;;5031530;28;20044;-68
2021/07/28 02:55:05;;;;;;;15.75;10.63;;;16.10;99.90;;;;;;5030684;28;20513;-68
2021/07/28 02:57:31;;;;;;;14.93;11.15;;;16.10;99.90;;;;;;5049911;28;20082;-67
2021/07/28 02:59:59;;;;;;;21.63;9.93;;;16.20;99.90;;;;;;5049158;28;20102;-67
2021/07/28 03:02:25;;;;;;;17.20;12.02;;;16.20;99.90;;;;;;5049804;28;20365;-67
2021/07/28 03:04:50;;;;;;;17.15;12.15;;;16.20;99.90;;;;;;5049439;28;20025;-67
2021/07/28 03:07:16;;;;;;;30.27;16.83;;;16.20;99.90;;;;;;5049585;28;20033;-67
2021/07/28 03:09:43;;;;;;;22.77;15.80;;;16.20;99.90;;;;;;5031234;28;20033;-67
2021/07/28 03:12:11;;;;;;;21.13;12.80;;;16.20;99.90;;;;;;5049330;28;20037;-68
2021/07/28 03:14:39;;;;;;;22.55;14.77;;;16.30;99.90;;;;;;5016546;28;20029;-68
2021/07/28 03:17:07;;;;;;;23.33;15.93;;;16.30;99.90;;;;;;5049233;28;20032;-68
2021/07/28 03:19:33;;;;;;;22.00;13.77;;;16.30;99.90;;;;;;5064420;28;20036;-67
2021/07/28 03:22:01;;;;;;;16.00;12.10;;;16.30;99.90;;;;;;5048610;28;20025;-68
2021/07/28 03:24:29;;;;;;;16.20;12.38;;;16.40;99.90;;;;;;5049462;28;21793;-67
2021/07/28 03:26:56;;;;;;;22.33;13.82;;;16.40;99.90;;;;;;5048941;28;20087;-67
2021/07/28 03:29:22;;;;;;;21.20;13.73;;;16.40;99.90;;;;;;5029455;28;20378;-67
2021/07/28 03:31:49;;;;;;;19.30;13.40;;;16.40;99.90;;;;;;5048762;28;20029;-67
2021/07/28 03:34:19;;;;;;;21.95;13.57;;;16.40;99.90;;;;;;5047398;28;20021;-67
2021/07/28 03:36:47;;;;;;;23.38;13.90;;;16.50;99.90;;;;;;5030995;28;20033;-68
2021/07/28 03:39:13;;;;;;;21.15;14.52;;;16.40;99.90;;;;;;5049031;28;20131;-68
2021/07/28 03:41:38;;;;;;;18.70;14.07;;;16.40;99.90;;;;;;5045869;28;20529;-68
2021/07/28 03:44:07;;;;;;;17.67;13.05;;;16.40;99.90;;;;;;5047491;28;20039;-67
2021/07/28 03:46:33;;;;;;;24.45;15.18;;;16.40;99.90;;;;;;5063817;28;20032;-67
2021/07/28 03:48:59;;;;;;;20.20;14.68;;;16.50;99.90;;;;;;5048453;28;20039;-68
2021/07/28 03:51:24;;;;;;;20.90;15.38;;;16.40;99.90;;;;;;5047144;28;20029;-68
2021/07/28 03:53:50;;;;;;;21.05;15.07;;;16.40;99.90;;;;;;5048514;28;20029;-67
2021/07/28 03:56:22;;;;;;;33.67;17.23;;;16.50;99.90;;;;;;5047533;28;20106;-67
2021/07/28 03:58:53;;;;;;;22.35;16.50;;;16.50;99.90;;;;;;5046912;28;20064;-68
2021/07/28 04:01:21;;;;;;;27.45;18.10;;;16.50;99.90;;;;;;5031478;28;20025;-68
2021/07/28 04:03:47;;;;;;;25.25;17.25;;;16.40;99.90;;;;;;5029712;28;20665;-68
2021/07/28 04:06:17;;;;;;;21.67;15.88;;;16.50;99.90;;;;;;5019263;28;20524;-68
2021/07/28 04:08:49;;;;;;;23.52;16.17;;;16.50;99.90;;;;;;5047876;28;20037;-68
2021/07/28 04:11:18;;;;;;;19.83;15.45;;;16.60;99.90;;;;;;5014489;28;20144;-68
2021/07/28 04:13:43;;;;;;;27.23;16.70;;;16.50;99.90;;;;;;5048555;28;20572;-67
2021/07/28 04:16:14;;;;;;;21.48;16.13;;;16.60;99.90;;;;;;5031154;28;20029;-68
2021/07/28 04:18:40;;;;;;;23.65;15.98;;;16.50;99.90;;;;;;5015551;28;20074;-68
2021/07/28 04:21:07;;;;;;;23.15;17.30;;;16.60;99.90;;;;;;5048189;28;20167;-68
2021/07/28 04:23:34;;;;;;;28.33;16.95;;;16.60;99.90;;;;;;5048609;28;20054;-69
2021/07/28 04:26:00;;;;;;;20.35;15.68;;;16.60;99.90;;;;;;5047337;28;20029;-68
2021/07/28 04:28:25;;;;;;;21.55;16.00;;;16.60;99.90;;;;;;5013738;28;20039;-68
2021/07/28 04:30:51;;;;;;;20.23;14.18;;;16.60;99.90;;;;;;5048099;28;20044;-68
2021/07/28 04:33:21;;;;;;;23.83;16.27;;;16.60;99.90;;;;;;5064130;28;20028;-68
2021/07/28 04:35:47;;;;;;;19.02;14.35;;;16.60;99.90;;;;;;5030413;28;20060;-68
2021/07/28 04:38:15;;;;;;;25.42;18.05;;;16.60;99.90;;;;;;5030217;28;20176;-67
2021/07/28 04:40:43;;;;;;;25.17;17.52;;;16.50;99.90;;;;;;5047057;28;20021;-68
2021/07/28 04:43:11;;;;;;;25.77;17.55;;;16.50;99.90;;;;;;5047491;28;20064;-68
2021/07/28 04:45:36;;;;;;;23.58;16.80;;;16.60;99.90;;;;;;5047960;28;20029;-67
2021/07/28 04:48:06;;;;;;;21.42;16.52;;;16.50;99.90;;;;;;5029393;28;20033;-68
2021/07/28 04:50:34;;;;;;;29.48;16.83;;;16.60;99.90;;;;;;5030080;28;20024;-67
2021/07/28 04:53:00;;;;;;;25.15;16.40;;;16.60;99.90;;;;;;5048417;28;21821;-67
2021/07/28 04:55:28;;;;;;;21.98;16.83;;;16.60;99.90;;;;;;5028635;28;20051;-68
2021/07/28 04:57:54;;;;;;;19.30;15.15;;;16.50;99.90;;;;;;5029917;28;20072;-67
2021/07/28 05:00:20;;;;;;;20.65;16.05;;;16.50;99.90;;;;;;5016489;28;20240;-67
2021/07/28 05:02:48;;;;;;;26.13;18.38;;;16.50;99.90;;;;;;5048303;28;20028;-67
2021/07/28 05:05:14;;;;;;;25.98;16.40;;;16.50;99.90;;;;;;5047192;28;20352;-67
2021/07/28 05:07:39;;;;;;;20.63;16.17;;;16.50;99.90;;;;;;5028919;28;20040;-68
2021/07/28 05:10:07;;;;;;;25.67;17.50;;;16.50;99.90;;;;;;5046650;28;20448;-67
2021/07/28 05:12:38;;;;;;;23.08;16.85;;;16.50;99.90;;;;;;5047230;28;20473;-70
2021/07/28 05:15:04;;;;;;;25.23;17.48;;;16.50;99.90;;;;;;5047180;28;20122;-68
2021/07/28 05:17:32;;;;;;;24.45;18.10;;;16.60;99.90;;;;;;5046649;28;20124;-67
2021/07/28 05:19:58;;;;;;;29.75;18.88;;;16.60;99.90;;;;;;5046880;28;20028;-67
2021/07/28 05:22:26;;;;;;;24.35;18.35;;;16.60;99.90;;;;;;5027397;28;20092;-68
2021/07/28 05:24:52;;;;;;;26.80;19.33;;;16.60;99.90;;;;;;5011929;28;20652;-70
2021/07/28 05:27:20;;;;;;;28.70;18.48;;;16.60;99.90;;;;;;5046226;28;20437;-68
2021/07/28 05:29:45;;;;;;;28.90;17.67;;;16.70;99.90;;;;;;5046488;28;20043;-68
2021/07/28 05:32:11;;;;;;;24.25;17.75;;;16.80;99.90;;;;;;5045769;28;20032;-68
2021/07/28 05:34:40;;;;;;;22.90;17.58;;;16.80;99.90;;;;;;5046382;28;20040;-68
2021/07/28 05:37:08;;;;;;;29.38;19.73;;;16.80;99.90;;;;;;5046356;28;20158;-68
2021/07/28 05:39:33;;;;;;;27.42;19.70;;;16.80;99.90;;;;;;5030348;28;20056;-68
2021/07/28 05:42:01;;;;;;;31.45;20.52;;;16.80;99.90;;;;;;5046501;28;21763;-68
2021/07/28 05:44:29;;;;;;;24.00;19.08;;;16.90;99.90;;;;;;5045954;28;20037;-68
2021/07/28 05:46:55;;;;;;;25.95;19.00;;;16.80;99.90;;;;;;5046553;28;20466;-68
2021/07/28 05:49:23;;;;;;;24.55;19.50;;;16.90;99.90;;;;;;5046750;28;20029;-69
2021/07/28 05:51:48;;;;;;;38.67;21.05;;;16.90;99.90;;;;;;5032642;28;20976;-69
2021/07/28 05:54:14;;;;;;;24.67;19.17;;;16.80;99.90;;;;;;5013454;28;20067;-69
2021/07/28 05:56:41;;;;;;;27.33;20.35;;;16.70;99.90;;;;;;5046777;28;20044;-68
2021/07/28 05:59:07;;;;;;;25.98;19.90;;;16.80;99.90;;;;;;5031965;28;20061;-68
2021/07/28 06:01:33;;;;;;;24.00;18.75;;;16.80;99.90;;;;;;5051022;28;20040;-68
2021/07/28 06:04:01;;;;;;;25.13;19.65;;;16.80;99.90;;;;;;5050760;28;20024;-69
2021/07/28 06:06:29;;;;;;;27.95;19.98;;;16.80;99.90;;;;;;5030013;28;20466;-68
2021/07/28 06:08:54;;;;;;;24.00;19.52;;;16.90;99.90;;;;;;5032685;28;20029;-69
2021/07/28 06:11:20;;;;;;;23.80;18.42;;;16.80;99.90;;;;;;5033228;28;20457;-68
2021/07/28 06:13:48;;;;;;;22.33;17.88;;;16.90;99.90;;;;;;5032205;28;20043;-69
2021/07/28 06:16:14;;;;;;;26.67;20.42;;;16.90;99.90;;;;;;5031525;28;20097;-68
2021/07/28 06:18:40;;;;;;;28.65;21.55;;;16.90;99.90;;;;;;5033283;28;20037;-69
2021/07/28 06:21:07;;;;;;;25.83;19.80;;;16.90;99.90;;;;;;5033102;28;20024;-68
2021/07/28 06:23:33;;;;;;;26.73;19.75;;;16.90;99.90;;;;;;5049648;28;20024;-66
2021/07/28 06:25:58;;;;;;;24.92;19.67;;;16.80;99.90;;;;;;5032080;28;20084;-66
2021/07/28 06:28:26;;;;;;;25.17;19.75;;;16.80;99.90;;;;;;5049105;28;20355;-68
2021/07/28 06:30:52;;;;;;;22.40;17.77;;;16.80;99.90;;;;;;5050511;28;20036;-69
2021/07/28 06:33:21;;;;;;;24.90;18.80;;;16.90;99.90;;;;;;5048935;28;20039;-68
2021/07/28 06:35:50;;;;;;;24.83;19.17;;;16.80;99.90;;;;;;5050713;28;20025;-69
2021/07/28 06:38:16;;;;;;;26.13;20.00;;;16.90;99.90;;;;;;5045362;28;20090;-68
2021/07/28 06:40:44;;;;;;;26.55;20.17;;;16.80;99.90;;;;;;5028904;28;20363;-68
2021/07/28 06:43:11;;;;;;;26.63;20.17;;;16.90;99.90;;;;;;5028959;28;20021;-68
2021/07/28 06:45:36;;;;;;;24.80;19.98;;;16.80;99.90;;;;;;5014038;28;20025;-68
2021/07/28 06:48:02;;;;;;;26.05;20.42;;;16.80;99.90;;;;;;5048180;28;20076;-69
2021/07/28 06:50:31;;;;;;;24.23;19.45;;;16.90;99.90;;;;;;5047237;28;20041;-69
2021/07/28 06:52:57;;;;;;;25.02;19.55;;;16.90;99.90;;;;;;5049245;28;20643;-68
2021/07/28 06:55:28;;;;;;;23.70;20.13;;;16.90;99.90;;;;;;5030279;28;20029;-66
2021/07/28 06:57:56;;;;;;;28.25;19.73;;;16.90;99.90;;;;;;5047047;28;20755;-66
2021/07/28 07:00:23;;;;;;;26.60;20.23;;;17.00;99.90;;;;;;5048455;28;20085;-68
2021/07/28 07:02:49;;;;;;;26.15;21.13;;;17.10;99.90;;;;;;5013123;28;20872;-68
2021/07/28 07:05:17;;;;;;;25.45;20.30;;;17.10;99.90;;;;;;5050297;28;20071;-69
2021/07/28 07:07:42;;;;;;;24.10;19.33;;;17.20;99.90;;;;;;5030201;28;20056;-69
2021/07/28 07:10:09;;;;;;;26.50;20.52;;;17.20;99.90;;;;;;5046728;28;20028;-69
2021/07/28 07:12:35;;;;;;;25.58;19.80;;;17.20;99.90;;;;;;5047923;28;20040;-69
2021/07/28 07:15:01;;;;;;;25.05;19.55;;;17.30;99.90;;;;;;5030487;28;20039;-69
2021/07/28 07:17:29;;;;;;;27.85;21.40;;;17.30;99.90;;;;;;5029900;28;20119;-69
2021/07/28 07:19:54;;;;;;;24.55;19.85;;;17.40;99.90;;;;;;5029192;28;21855;-69
2021/07/28 07:22:20;;;;;;;22.40;18.65;;;17.30;99.90;;;;;;5046373;28;20044;-69
2021/07/28 07:24:48;;;;;;;23.60;18.55;;;17.40;99.90;;;;;;5047324;28;20033;-69
2021/07/28 07:27:14;;;;;;;22.05;18.73;;;17.40;99.90;;;;;;5027515;28;20056;-68
2021/07/28 07:29:39;;;;;;;20.48;17.90;;;17.50;99.90;;;;;;5028783;28;20116;-69
2021/07/28 07:32:05;;;;;;;24.20;19.35;;;17.40;99.90;;;;;;5045334;28;20033;-69
2021/07/28 07:34:31;;;;;;;21.15;17.85;;;17.50;99.90;;;;;;5047342;28;20715;-69
2021/07/28 07:36:58;;;;;;;21.27;17.83;;;17.50;99.90;;;;;;5046403;28;20037;-69
2021/07/28 07:39:24;;;;;;;20.77;17.95;;;17.60;99.90;;;;;;5029736;28;20041;-68
2021/07/28 07:41:50;;;;;;;21.67;17.50;;;17.60;99.90;;;;;;5028253;28;20029;-69
2021/07/28 07:44:15;;;;;;;21.38;17.23;;;17.70;99.90;;;;;;5047311;28;20035;-68
2021/07/28 07:46:43;;;;;;;20.73;16.33;;;17.60;99.90;;;;;;5029522;28;20028;-68
2021/07/28 07:49:09;;;;;;;23.75;18.70;;;17.70;99.90;;;;;;5046704;28;20033;-69
2021/07/28 07:51:34;;;;;;;20.65;16.65;;;17.60;99.90;;;;;;5047095;28;20459;-68
2021/07/28 07:54:00;;;;;;;22.25;16.80;;;17.70;99.90;;;;;;5045920;28;20508;-69
2021/07/28 07:56:28;;;;;;;18.92;15.75;;;17.80;99.90;;;;;;5047864;28;20029;-68
2021/07/28 07:58:54;;;;;;;21.92;16.55;;;17.80;99.90;;;;;;5047361;28;21159;-68
2021/07/28 08:01:19;;;;;;;17.67;14.82;;;17.90;99.90;;;;;;5028935;28;20155;-68
2021/07/28 08:03:45;;;;;;;19.35;14.85;;;17.90;99.90;;;;;;5046760;28;20028;-68
2021/07/28 08:06:13;;;;;;;18.13;15.15;;;17.90;99.90;;;;;;5029510;28;20180;-68
2021/07/28 08:08:39;;;;;;;18.55;14.27;;;18.00;99.90;;;;;;5028828;28;20144;-69
2021/07/28 08:11:11;;;;;;;18.05;14.38;;;18.00;99.90;;;;;;5028267;28;20414;-68
2021/07/28 08:13:37;;;;;;;17.83;14.82;;;18.00;99.90;;;;;;5023405;28;20119;-68
2021/07/28 08:16:16;;;;;;;16.33;13.75;;;18.00;99.90;;;;;;5028905;28;20032;-68
2021/07/28 08:18:42;;;;;;;16.75;14.50;;;18.10;99.90;;;;;;5028397;28;20091;-68
2021/07/28 08:21:09;;;;;;;17.67;14.80;;;18.20;99.90;;;;;;5046554;28;20017;-69
2021/07/28 08:23:36;;;;;;;17.60;13.63;;;18.10;99.90;;;;;;5028774;28;20028;-69
2021/07/28 08:26:04;;;;;;;18.35;14.55;;;18.10;99.90;;;;;;5044305;28;20829;-68
2021/07/28 08:28:30;;;;;;;18.23;14.20;;;18.30;99.90;;;;;;4993955;28;20056;-69
2021/07/28 08:30:55;;;;;;;18.02;13.93;;;18.30;99.90;;;;;;5026816;28;20032;-68
2021/07/28 08:33:25;;;;;;;17.75;14.65;;;18.30;99.90;;;;;;5045571;28;20124;-68
2021/07/28 08:35:53;;;;;;;18.17;14.40;;;18.40;99.90;;;;;;5045560;28;20028;-68
2021/07/28 08:38:21;;;;;;;18.55;13.32;;;18.30;99.90;;;;;;5045728;28;20044;-68
2021/07/28 08:40:55;;;;;;;17.17;13.35;;;18.30;99.90;;;;;;5045006;28;20040;-68
2021/07/28 08:43:23;;;;;;;16.65;12.77;;;18.40;99.90;;;;;;5028460;28;20111;-68
2021/07/28 08:45:51;;;;;;;17.17;12.60;;;18.50;99.90;;;;;;5027824;28;20032;-68
2021/07/28 08:48:17;;;;;;;17.88;13.70;;;18.70;99.90;;;;;;5045782;28;20033;-68
2021/07/28 08:50:47;;;;;;;15.18;13.20;;;18.80;99.90;;;;;;5045522;28;20571;-68
2021/07/28 08:53:15;;;;;;;15.63;13.00;;;18.90;99.90;;;;;;5046638;28;20141;-68
2021/07/28 08:55:40;;;;;;;15.50;12.90;;;19.00;99.90;;;;;;5045576;28;20029;-68
2021/07/28 08:58:12;;;;;;;15.23;12.90;;;19.00;99.90;;;;;;5028190;28;20072;-68
2021/07/28 09:00:44;;;;;;;16.52;13.00;;;18.80;99.90;;;;;;5027576;28;20047;-69
2021/07/28 09:03:12;;;;;;;16.90;12.95;;;18.70;99.90;;;;;;5045131;28;20063;-69
2021/07/28 09:05:45;;;;;;;17.05;13.13;;;18.70;99.90;;;;;;5044591;28;20033;-69
2021/07/28 09:08:27;;;;;;;17.40;13.05;;;18.70;99.90;;;;;;5029170;28;20124;-69
2021/07/28 09:11:08;;;;;;;16.88;13.50;;;18.70;99.90;;;;;;5027649;28;20064;-69
2021/07/28 09:13:38;;;;;;;16.00;13.13;;;18.80;99.90;;;;;;5029543;28;20400;-69
2021/07/28 09:16:09;;;;;;;18.90;14.65;;;18.70;99.90;;;;;;5045993;28;20028;-69
2021/07/28 09:18:39;;;;;;;16.88;14.50;;;18.70;99.90;;;;;;5029409;28;20039;-69
2021/07/28 09:21:06;;;;;;;16.58;14.18;;;18.40;99.90;;;;;;5012197;28;20024;-69
2021/07/28 09:23:39;;;;;;;15.60;13.50;;;18.30;99.90;;;;;;5046884;28;20028;-69
2021/07/28 09:26:40;;;;;;;15.50;13.75;;;18.40;99.90;;;;;;5008231;28;20052;-68
2021/07/28 09:29:18;;;;;;;17.70;13.60;;;18.50;99.90;;;;;;5030239;28;20634;-66
2021/07/28 09:31:51;;;;;;;18.27;13.82;;;18.60;99.90;;;;;;5026818;28;20086;-67
2021/07/28 09:34:19;;;;;;;17.08;14.00;;;18.50;99.90;;;;;;5013331;28;20043;-69
2021/07/28 09:36:45;;;;;;;17.20;13.45;;;18.60;99.90;;;;;;5044404;28;20515;-69
2021/07/28 09:39:21;;;;;;;15.77;12.77;;;18.70;99.90;;;;;;5028122;28;20025;-69
2021/07/28 09:41:53;;;;;;;18.40;14.30;;;18.70;99.90;;;;;;5027845;28;20451;-69
2021/07/28 09:44:32;;;;;;;16.08;12.80;;;18.70;99.90;;;;;;5028014;28;20102;-69
2021/07/28 09:47:18;;;;;;;17.45;13.30;;;18.80;99.90;;;;;;5027702;28;20037;-69
2021/07/28 09:49:47;;;;;;;18.23;13.50;;;18.80;99.90;;;;;;5045049;28;20033;-69
2021/07/28 09:52:16;;;;;;;16.58;13.15;;;18.80;99.90;;;;;;5045400;28;20051;-69
2021/07/28 09:54:42;;;;;;;17.30;14.02;;;18.80;99.90;;;;;;5044123;28;20025;-69
2021/07/28 09:57:11;;;;;;;16.38;13.93;;;18.90;99.90;;;;;;5043871;28;20069;-69
2021/07/28 09:59:39;;;;;;;20.67;15.70;;;18.80;99.90;;;;;;5045111;28;20062;-68
2021/07/28 10:02:05;;;;;;;19.55;15.60;;;18.70;99.90;;;;;;5026361;28;20633;-68
2021/07/28 10:04:31;;;;;;;19.73;16.60;;;18.70;99.90;;;;;;5045007;28;20036;-66
2021/07/28 10:06:59;;;;;;;22.33;17.17;;;18.70;99.90;;;;;;5025746;28;20119;-68
2021/07/28 10:09:34;;;;;;;22.15;16.33;;;18.70;99.90;;;;;;5011205;28;20033;-68
2021/07/28 10:12:00;;;;;;;20.83;16.50;;;18.80;99.90;;;;;;5044418;28;20024;-68
2021/07/28 10:14:25;;;;;;;20.85;16.80;;;18.70;99.90;;;;;;5043905;28;20039;-68
2021/07/28 10:16:52;;;;;;;20.65;17.27;;;18.70;99.90;;;;;;5042442;28;20040;-68
2021/07/28 10:19:18;;;;;;;21.15;17.25;;;18.80;99.90;;;;;;5025961;28;20036;-69
2021/07/28 10:21:43;;;;;;;20.55;16.73;;;18.90;99.90;;;;;;5027908;28;20029;-69
2021/07/28 10:24:09;;;;;;;21.23;17.17;;;18.90;99.90;;;;;;5046575;28;20067;-69
2021/07/28 10:26:38;;;;;;;19.30;16.00;;;18.90;99.90;;;;;;5046036;28;20116;-69
2021/07/28 10:29:03;;;;;;;18.48;16.42;;;19.00;99.90;;;;;;5041676;28;20044;-69
2021/07/28 10:31:42;;;;;;;20.10;15.52;;;19.20;99.90;;;;;;5045552;28;20025;-69
2021/07/28 10:34:10;;;;;;;18.45;15.07;;;19.20;99.90;;;;;;5029054;28;20085;-68
2021/07/28 10:37:01;;;;;;;18.38;15.18;;;19.30;99.90;;;;;;5012450;28;20061;-69
2021/07/28 10:39:37;;;;;;;19.83;15.67;;;19.20;99.90;;;;;;5045947;28;20025;-68
2021/07/28 10:42:06;;;;;;;21.52;17.50;;;19.40;99.90;;;;;;5044422;28;20281;-69
2021/07/28 10:44:34;;;;;;;19.98;16.63;;;19.40;99.90;;;;;;5028260;28;20087;-68
2021/07/28 10:47:10;;;;;;;18.48;15.60;;;19.50;99.90;;;;;;5021247;28;20078;-69
2021/07/28 10:49:36;;;;;;;19.08;16.95;;;19.40;99.90;;;;;;5029244;28;20048;-68
2021/07/28 10:52:05;;;;;;;21.08;17.10;;;19.20;99.90;;;;;;5047854;28;20456;-68
2021/07/28 10:54:50;;;;;;;17.52;15.63;;;19.30;99.90;;;;;;5029358;28;20033;-69
2021/07/28 10:57:34;;;;;;;24.83;16.80;;;19.30;99.90;;;;;;5016718;28;20040;-69
2021/07/28 11:00:01;;;;;;;20.10;16.75;;;19.30;99.90;;;;;;5027416;28;20037;-68
2021/07/28 11:02:54;;;;;;;23.70;17.10;;;19.20;99.90;;;;;;5026905;28;20505;-68
2021/07/28 11:05:23;;;;;;;19.15;15.77;;;19.20;99.90;;;;;;5027850;28;20037;-68
2021/07/28 11:08:07;;;;;;;21.40;16.75;;;19.10;99.90;;;;;;5010948;28;20854;-68
2021/07/28 11:10:41;;;;;;;21.67;17.95;;;19.20;99.90;;;;;;5027887;28;20037;-68
2021/07/28 11:13:07;;;;;;;20.10;17.67;;;19.10;99.90;;;;;;5027560;28;20131;-68
2021/07/28 11:15:36;;;;;;;19.25;17.05;;;19.10;99.90;;;;;;5009208;28;20457;-68
2021/07/28 11:18:01;;;;;;;18.88;16.33;;;19.00;99.90;;;;;;5010325;28;20262;-69
2021/07/28 11:20:34;;;;;;;20.15;15.25;;;19.00;99.90;;;;;;5010283;28;20029;-68
2021/07/28 11:23:29;;;;;;;19.38;15.43;;;19.00;99.90;;;;;;4996033;28;20056;-68
2021/07/28 11:26:01;;;;;;;17.95;15.02;;;19.00;99.90;;;;;;5011754;28;20051;-66
2021/07/28 11:28:27;;;;;;;;;;;19.00;99.90;;;;;;5010815;28;20378;-66
2021/07/28 11:31:00;;;;;;;20.83;15.90;;;19.00;99.90;;;;;;5027870;28;19927;-68
2021/07/28 11:33:31;;;;;;;22.50;17.35;;;18.90;99.90;;;;;;5009097;28;20029;-68
2021/07/28 11:35:58;;;;;;;20.50;16.48;;;19.00;99.90;;;;;;5010204;28;20033;-68
2021/07/28 11:38:34;;;;;;;19.90;16.80;;;18.90;99.90;;;;;;5010332;28;20059;-68
2021/07/28 11:41:01;;;;;;;20.55;16.60;;;18.90;99.90;;;;;;5011174;28;20017;-68
2021/07/28 11:43:38;;;;;;;21.35;15.82;;;18.80;99.90;;;;;;5008334;28;20424;-68
2021/07/28 11:46:11;;;;;;;19.27;15.05;;;18.90;99.90;;;;;;5013017;28;20029;-68
2021/07/28 11:48:38;;;;;;;18.20;14.82;;;19.00;99.90;;;;;;5026718;28;20135;-68
2021/07/28 11:51:05;;;;;;;18.15;14.27;;;19.10;99.90;;;;;;5027228;28;20033;-68
2021/07/28 11:53:32;;;;;;;18.65;15.68;;;19.10;99.90;;;;;;5008843;28;20033;-68
2021/07/28 11:56:11;;;;;;;16.15;12.18;;;19.30;99.90;;;;;;4991225;28;20179;-68
2021/07/28 11:58:47;;;;;;;13.40;9.88;;;19.30;99.90;;;;;;5019164;28;20052;-68
2021/07/28 12:01:39;;;;;;;13.32;9.55;;;19.30;99.90;;;;;;5015006;28;20044;-68
2021/07/28 12:04:10;;;;;;;;;;;19.20;99.90;;;;;;5027276;28;20029;-68
2021/07/28 12:06:42;;;;;;;13.43;10.50;;;19.40;99.90;;;;;;5044226;28;19923;-68
2021/07/28 12:09:12;;;;;;;12.30;10.52;;;19.40;99.90;;;;;;5045419;28;20060;-69
2021/07/28 12:11:54;;;;;;;14.23;11.40;;;19.50;99.90;;;;;;5060439;28;20037;-67
2021/07/28 12:14:38;;;;;;;13.15;10.63;;;19.60;99.90;;;;;;5045553;28;20547;-67
2021/07/28 12:17:20;;;;;;;13.68;9.93;;;19.70;99.90;;;;;;5045497;28;20469;-68
2021/07/28 12:19:59;;;;;;;12.23;9.60;;;19.80;99.90;;;;;;5045607;28;20024;-68
2021/07/28 12:22:41;;;;;;;12.90;10.68;;;19.90;99.90;;;;;;5046078;28;20025;-68
2021/07/28 12:25:14;;;;;;;11.95;9.35;;;20.10;99.90;;;;;;5012092;28;20032;-69
2021/07/28 12:27:57;;;;;;;9.85;8.75;;;20.20;99.90;;;;;;5045553;28;20466;-69
2021/07/28 12:30:39;;;;;;;12.38;9.25;;;20.10;99.90;;;;;;5026064;28;20041;-69
2021/07/28 12:33:17;;;;;;;10.95;9.18;;;20.10;99.90;;;;;;5059731;28;20104;-69
2021/07/28 12:35:56;;;;;;;12.63;9.77;;;20.30;99.90;;;;;;5045254;28;20478;-69
2021/07/28 12:38:25;;;;;;;10.43;9.10;;;20.40;99.90;;;;;;5046222;28;20066;-69
2021/07/28 12:41:01;;;;;;;10.15;9.00;;;20.50;99.90;;;;;;5026406;28;20090;-68